sensor_id;sensor_type;location;lat;lon;timestamp;P1;durP1;ratioP1;P2;durP2;ratioP2
40116;SDS011;25829;50.228;18.936;2024-03-02T00:01:02;53.83;;;31.43;;
40116;SDS011;25829;50.228;18.936;2024-03-02T00:04:06;51.93;;;30.87;;
40116;SDS011;25829;50.228;18.936;2024-03-02T00:07:08;52.87;;;30.80;;
40116;SDS011;25829;50.228;18.936;2024-03-02T00:10:14;45.77;;;30.17;;
40116;SDS011;25829;50.228;18.936;2024-03-02T00:13:20;49.67;;;31.80;;
40116;SDS011;25829;50.228;18.936;2024-03-02T00:16:27;49.73;;;31.40;;
40116;SDS011;25829;50.228;18.936;2024-03-02T00:19:33;54.63;;;34.13;;
40116;SDS011;25829;50.228;18.936;2024-03-02T00:22:40;53.87;;;33.67;;
40116;SDS011;25829;50.228;18.936;2024-03-02T00:25:41;51.53;;;31.23;;
40116;SDS011;25829;50.228;18.936;2024-03-02T00:28:47;51.33;;;30.90;;
40116;SDS011;25829;50.228;18.936;2024-03-02T00:31:50;49.83;;;30.47;;
40116;SDS011;25829;50.228;18.936;2024-03-02T00:34:51;51.13;;;31.37;;
40116;SDS011;25829;50.228;18.936;2024-03-02T00:37:52;53.90;;;31.03;;
40116;SDS011;25829;50.228;18.936;2024-03-02T00:40:53;49.53;;;31.40;;
40116;SDS011;25829;50.228;18.936;2024-03-02T00:47:00;47.07;;;29.77;;
40116;SDS011;25829;50.228;18.936;2024-03-02T00:50:02;46.00;;;29.17;;
40116;SDS011;25829;50.228;18.936;2024-03-02T00:53:04;43.97;;;29.03;;
40116;SDS011;25829;50.228;18.936;2024-03-02T00:56:04;41.60;;;26.83;;
40116;SDS011;25829;50.228;18.936;2024-03-02T00:59:11;46.20;;;27.40;;
40116;SDS011;25829;50.228;18.936;2024-03-02T01:02:12;44.30;;;26.93;;
40116;SDS011;25829;50.228;18.936;2024-03-02T01:05:12;43.07;;;27.57;;
40116;SDS011;25829;50.228;18.936;2024-03-02T01:08:13;51.03;;;29.77;;
40116;SDS011;25829;50.228;18.936;2024-03-02T01:11:15;46.90;;;28.80;;
40116;SDS011;25829;50.228;18.936;2024-03-02T01:14:15;44.07;;;28.03;;
40116;SDS011;25829;50.228;18.936;2024-03-02T01:17:16;45.00;;;27.90;;
40116;SDS011;25829;50.228;18.936;2024-03-02T01:20:17;42.03;;;26.97;;
40116;SDS011;25829;50.228;18.936;2024-03-02T01:23:18;45.50;;;27.30;;
40116;SDS011;25829;50.228;18.936;2024-03-02T01:26:19;40.43;;;26.77;;
40116;SDS011;25829;50.228;18.936;2024-03-02T01:29:20;41.83;;;25.67;;
40116;SDS011;25829;50.228;18.936;2024-03-02T01:32:21;43.50;;;27.43;;
40116;SDS011;25829;50.228;18.936;2024-03-02T01:35:22;43.37;;;26.73;;
40116;SDS011;25829;50.228;18.936;2024-03-02T01:38:23;42.03;;;26.60;;
40116;SDS011;25829;50.228;18.936;2024-03-02T01:41:23;43.60;;;26.20;;
40116;SDS011;25829;50.228;18.936;2024-03-02T01:44:24;41.40;;;25.27;;
40116;SDS011;25829;50.228;18.936;2024-03-02T01:47:25;35.57;;;23.97;;
40116;SDS011;25829;50.228;18.936;2024-03-02T01:50:26;35.10;;;24.17;;
40116;SDS011;25829;50.228;18.936;2024-03-02T01:53:28;39.77;;;25.23;;
40116;SDS011;25829;50.228;18.936;2024-03-02T01:56:29;35.50;;;23.77;;
40116;SDS011;25829;50.228;18.936;2024-03-02T01:59:30;37.87;;;23.73;;
40116;SDS011;25829;50.228;18.936;2024-03-02T02:02:31;41.17;;;25.70;;
40116;SDS011;25829;50.228;18.936;2024-03-02T02:05:32;36.97;;;24.10;;
40116;SDS011;25829;50.228;18.936;2024-03-02T02:08:34;37.47;;;24.33;;
40116;SDS011;25829;50.228;18.936;2024-03-02T02:11:37;39.60;;;25.20;;
40116;SDS011;25829;50.228;18.936;2024-03-02T02:14:38;39.00;;;25.53;;
40116;SDS011;25829;50.228;18.936;2024-03-02T02:17:40;41.73;;;26.73;;
40116;SDS011;25829;50.228;18.936;2024-03-02T02:20:40;41.17;;;25.70;;
40116;SDS011;25829;50.228;18.936;2024-03-02T02:23:41;38.00;;;24.70;;
40116;SDS011;25829;50.228;18.936;2024-03-02T02:26:46;41.30;;;25.17;;
40116;SDS011;25829;50.228;18.936;2024-03-02T02:29:47;39.27;;;23.10;;
40116;SDS011;25829;50.228;18.936;2024-03-02T02:32:48;42.17;;;25.63;;
40116;SDS011;25829;50.228;18.936;2024-03-02T02:35:49;38.23;;;25.47;;
40116;SDS011;25829;50.228;18.936;2024-03-02T02:38:49;37.10;;;25.57;;
40116;SDS011;25829;50.228;18.936;2024-03-02T02:41:51;35.33;;;25.57;;
40116;SDS011;25829;50.228;18.936;2024-03-02T02:44:51;36.03;;;24.87;;
40116;SDS011;25829;50.228;18.936;2024-03-02T02:47:52;39.73;;;23.73;;
40116;SDS011;25829;50.228;18.936;2024-03-02T02:50:53;37.60;;;24.70;;
40116;SDS011;25829;50.228;18.936;2024-03-02T02:53:53;37.17;;;25.23;;
40116;SDS011;25829;50.228;18.936;2024-03-02T02:56:54;38.10;;;23.90;;
40116;SDS011;25829;50.228;18.936;2024-03-02T02:59:55;37.17;;;23.87;;
40116;SDS011;25829;50.228;18.936;2024-03-02T03:02:56;34.47;;;23.17;;
40116;SDS011;25829;50.228;18.936;2024-03-02T03:05:56;34.73;;;23.17;;
40116;SDS011;25829;50.228;18.936;2024-03-02T03:08:57;32.20;;;22.57;;
40116;SDS011;25829;50.228;18.936;2024-03-02T03:11:58;35.40;;;22.60;;
40116;SDS011;25829;50.228;18.936;2024-03-02T03:14:59;30.30;;;21.47;;
40116;SDS011;25829;50.228;18.936;2024-03-02T03:18:00;36.57;;;23.90;;
40116;SDS011;25829;50.228;18.936;2024-03-02T03:21:01;32.60;;;22.63;;
40116;SDS011;25829;50.228;18.936;2024-03-02T03:24:01;35.80;;;21.80;;
40116;SDS011;25829;50.228;18.936;2024-03-02T03:27:02;37.93;;;23.43;;
40116;SDS011;25829;50.228;18.936;2024-03-02T03:30:03;34.97;;;22.67;;
40116;SDS011;25829;50.228;18.936;2024-03-02T03:33:04;31.90;;;21.20;;
40116;SDS011;25829;50.228;18.936;2024-03-02T03:36:09;29.93;;;21.13;;
40116;SDS011;25829;50.228;18.936;2024-03-02T03:39:10;28.50;;;21.27;;
40116;SDS011;25829;50.228;18.936;2024-03-02T03:42:11;33.60;;;21.23;;
40116;SDS011;25829;50.228;18.936;2024-03-02T03:45:11;35.07;;;22.33;;
40116;SDS011;25829;50.228;18.936;2024-03-02T03:48:12;38.87;;;24.53;;
40116;SDS011;25829;50.228;18.936;2024-03-02T03:51:13;40.00;;;25.50;;
40116;SDS011;25829;50.228;18.936;2024-03-02T03:54:13;33.27;;;22.17;;
40116;SDS011;25829;50.228;18.936;2024-03-02T03:57:14;30.97;;;22.40;;
40116;SDS011;25829;50.228;18.936;2024-03-02T04:00:15;33.17;;;23.67;;
40116;SDS011;25829;50.228;18.936;2024-03-02T04:03:16;33.23;;;21.67;;
40116;SDS011;25829;50.228;18.936;2024-03-02T04:06:17;33.43;;;22.37;;
40116;SDS011;25829;50.228;18.936;2024-03-02T04:09:17;32.67;;;21.77;;
40116;SDS011;25829;50.228;18.936;2024-03-02T04:12:18;32.87;;;20.50;;
40116;SDS011;25829;50.228;18.936;2024-03-02T04:15:19;28.13;;;20.00;;
40116;SDS011;25829;50.228;18.936;2024-03-02T04:18:20;30.10;;;19.83;;
40116;SDS011;25829;50.228;18.936;2024-03-02T04:21:20;29.40;;;20.77;;
40116;SDS011;25829;50.228;18.936;2024-03-02T04:24:21;27.30;;;19.90;;
40116;SDS011;25829;50.228;18.936;2024-03-02T04:27:22;28.03;;;18.77;;
40116;SDS011;25829;50.228;18.936;2024-03-02T04:30:23;28.50;;;19.47;;
40116;SDS011;25829;50.228;18.936;2024-03-02T04:33:23;26.73;;;18.73;;
40116;SDS011;25829;50.228;18.936;2024-03-02T04:36:24;29.53;;;18.97;;
40116;SDS011;25829;50.228;18.936;2024-03-02T04:39:25;31.70;;;19.07;;
40116;SDS011;25829;50.228;18.936;2024-03-02T04:42:26;33.40;;;20.67;;
40116;SDS011;25829;50.228;18.936;2024-03-02T04:45:27;32.90;;;19.53;;
40116;SDS011;25829;50.228;18.936;2024-03-02T04:48:28;28.60;;;18.67;;
40116;SDS011;25829;50.228;18.936;2024-03-02T04:51:29;31.70;;;20.00;;
40116;SDS011;25829;50.228;18.936;2024-03-02T04:54:29;31.30;;;19.30;;
40116;SDS011;25829;50.228;18.936;2024-03-02T04:57:30;29.63;;;20.13;;
40116;SDS011;25829;50.228;18.936;2024-03-02T05:00:31;32.07;;;21.27;;
40116;SDS011;25829;50.228;18.936;2024-03-02T05:03:31;31.13;;;20.70;;
40116;SDS011;25829;50.228;18.936;2024-03-02T05:06:35;30.30;;;19.67;;
40116;SDS011;25829;50.228;18.936;2024-03-02T05:16:06;30.63;;;21.20;;
40116;SDS011;25829;50.228;18.936;2024-03-02T05:19:07;27.50;;;18.10;;
40116;SDS011;25829;50.228;18.936;2024-03-02T05:22:08;31.20;;;18.87;;
40116;SDS011;25829;50.228;18.936;2024-03-02T05:25:09;30.07;;;19.47;;
40116;SDS011;25829;50.228;18.936;2024-03-02T05:28:10;28.10;;;19.00;;
40116;SDS011;25829;50.228;18.936;2024-03-02T05:31:14;32.90;;;19.87;;
40116;SDS011;25829;50.228;18.936;2024-03-02T05:34:15;28.93;;;19.43;;
40116;SDS011;25829;50.228;18.936;2024-03-02T05:37:16;32.17;;;19.57;;
40116;SDS011;25829;50.228;18.936;2024-03-02T05:40:17;37.30;;;21.97;;
40116;SDS011;25829;50.228;18.936;2024-03-02T05:43:18;38.00;;;21.10;;
40116;SDS011;25829;50.228;18.936;2024-03-02T05:46:20;28.37;;;19.67;;
40116;SDS011;25829;50.228;18.936;2024-03-02T05:49:22;29.20;;;19.57;;
40116;SDS011;25829;50.228;18.936;2024-03-02T05:52:23;27.27;;;18.87;;
40116;SDS011;25829;50.228;18.936;2024-03-02T05:55:23;33.37;;;20.83;;
40116;SDS011;25829;50.228;18.936;2024-03-02T05:58:24;31.17;;;20.30;;
40116;SDS011;25829;50.228;18.936;2024-03-02T06:04:46;31.70;;;21.20;;
40116;SDS011;25829;50.228;18.936;2024-03-02T06:07:47;29.43;;;19.87;;
40116;SDS011;25829;50.228;18.936;2024-03-02T06:10:48;28.40;;;20.40;;
40116;SDS011;25829;50.228;18.936;2024-03-02T06:13:49;31.43;;;21.70;;
40116;SDS011;25829;50.228;18.936;2024-03-02T06:16:49;32.00;;;20.57;;
40116;SDS011;25829;50.228;18.936;2024-03-02T06:19:50;29.87;;;20.97;;
40116;SDS011;25829;50.228;18.936;2024-03-02T06:22:51;31.07;;;21.50;;
40116;SDS011;25829;50.228;18.936;2024-03-02T06:25:51;34.87;;;21.80;;
40116;SDS011;25829;50.228;18.936;2024-03-02T06:28:52;28.07;;;19.53;;
40116;SDS011;25829;50.228;18.936;2024-03-02T06:31:53;33.60;;;21.93;;
40116;SDS011;25829;50.228;18.936;2024-03-02T06:34:54;35.60;;;23.93;;
40116;SDS011;25829;50.228;18.936;2024-03-02T06:37:54;34.73;;;23.73;;
40116;SDS011;25829;50.228;18.936;2024-03-02T06:40:55;33.37;;;22.83;;
40116;SDS011;25829;50.228;18.936;2024-03-02T06:43:56;32.00;;;21.87;;
40116;SDS011;25829;50.228;18.936;2024-03-02T06:46:59;33.63;;;21.10;;
40116;SDS011;25829;50.228;18.936;2024-03-02T06:50:00;33.00;;;21.37;;
40116;SDS011;25829;50.228;18.936;2024-03-02T06:53:01;39.10;;;22.93;;
40116;SDS011;25829;50.228;18.936;2024-03-02T06:56:04;33.00;;;21.60;;
40116;SDS011;25829;50.228;18.936;2024-03-02T06:59:05;35.23;;;22.57;;
40116;SDS011;25829;50.228;18.936;2024-03-02T07:02:06;35.97;;;22.50;;
40116;SDS011;25829;50.228;18.936;2024-03-02T07:05:08;40.33;;;24.23;;
40116;SDS011;25829;50.228;18.936;2024-03-02T07:08:09;35.40;;;23.10;;
40116;SDS011;25829;50.228;18.936;2024-03-02T07:11:10;32.37;;;21.33;;
40116;SDS011;25829;50.228;18.936;2024-03-02T07:14:11;33.07;;;21.80;;
40116;SDS011;25829;50.228;18.936;2024-03-02T07:17:12;35.87;;;22.50;;
40116;SDS011;25829;50.228;18.936;2024-03-02T07:20:12;30.80;;;20.93;;
40116;SDS011;25829;50.228;18.936;2024-03-02T07:23:13;46.70;;;28.07;;
40116;SDS011;25829;50.228;18.936;2024-03-02T07:26:14;41.50;;;27.60;;
40116;SDS011;25829;50.228;18.936;2024-03-02T07:29:15;39.80;;;26.27;;
40116;SDS011;25829;50.228;18.936;2024-03-02T07:32:16;41.10;;;26.03;;
40116;SDS011;25829;50.228;18.936;2024-03-02T07:35:16;35.47;;;22.80;;
40116;SDS011;25829;50.228;18.936;2024-03-02T07:38:18;31.53;;;21.53;;
40116;SDS011;25829;50.228;18.936;2024-03-02T07:41:19;31.67;;;21.03;;
40116;SDS011;25829;50.228;18.936;2024-03-02T07:44:19;34.47;;;22.03;;
40116;SDS011;25829;50.228;18.936;2024-03-02T07:47:20;33.20;;;22.77;;
40116;SDS011;25829;50.228;18.936;2024-03-02T07:50:21;34.20;;;22.20;;
40116;SDS011;25829;50.228;18.936;2024-03-02T07:53:22;30.57;;;21.00;;
40116;SDS011;25829;50.228;18.936;2024-03-02T07:56:22;32.80;;;21.53;;
40116;SDS011;25829;50.228;18.936;2024-03-02T07:59:26;39.43;;;24.13;;
40116;SDS011;25829;50.228;18.936;2024-03-02T08:06:33;37.73;;;24.10;;
40116;SDS011;25829;50.228;18.936;2024-03-02T08:09:34;35.47;;;23.80;;
40116;SDS011;25829;50.228;18.936;2024-03-02T08:12:35;36.33;;;24.63;;
40116;SDS011;25829;50.228;18.936;2024-03-02T08:15:36;37.87;;;24.30;;
40116;SDS011;25829;50.228;18.936;2024-03-02T08:18:36;38.43;;;23.67;;
40116;SDS011;25829;50.228;18.936;2024-03-02T08:21:37;34.73;;;23.30;;
40116;SDS011;25829;50.228;18.936;2024-03-02T08:24:38;39.77;;;25.10;;
40116;SDS011;25829;50.228;18.936;2024-03-02T08:27:39;35.60;;;23.40;;
40116;SDS011;25829;50.228;18.936;2024-03-02T08:30:40;36.53;;;24.50;;
40116;SDS011;25829;50.228;18.936;2024-03-02T08:33:41;39.13;;;25.30;;
40116;SDS011;25829;50.228;18.936;2024-03-02T08:36:42;33.10;;;23.70;;
40116;SDS011;25829;50.228;18.936;2024-03-02T08:39:44;38.97;;;25.27;;
40116;SDS011;25829;50.228;18.936;2024-03-02T08:42:45;42.53;;;25.80;;
40116;SDS011;25829;50.228;18.936;2024-03-02T08:45:47;38.85;;;24.45;;
40116;SDS011;25829;50.228;18.936;2024-03-02T08:48:49;38.47;;;25.13;;
40116;SDS011;25829;50.228;18.936;2024-03-02T08:51:50;36.73;;;25.40;;
40116;SDS011;25829;50.228;18.936;2024-03-02T08:54:54;37.30;;;24.58;;
40116;SDS011;25829;50.228;18.936;2024-03-02T08:57:55;39.72;;;24.58;;
40116;SDS011;25829;50.228;18.936;2024-03-02T09:00:56;31.93;;;21.27;;
40116;SDS011;25829;50.228;18.936;2024-03-02T09:03:57;28.48;;;20.83;;
40116;SDS011;25829;50.228;18.936;2024-03-02T09:06:58;28.60;;;20.13;;
40116;SDS011;25829;50.228;18.936;2024-03-02T09:09:59;28.52;;;19.52;;
40116;SDS011;25829;50.228;18.936;2024-03-02T09:12:59;31.48;;;19.88;;
40116;SDS011;25829;50.228;18.936;2024-03-02T09:16:00;27.60;;;18.27;;
40116;SDS011;25829;50.228;18.936;2024-03-02T09:19:01;30.03;;;18.70;;
40116;SDS011;25829;50.228;18.936;2024-03-02T09:22:02;28.48;;;19.77;;
40116;SDS011;25829;50.228;18.936;2024-03-02T09:25:05;28.60;;;18.65;;
40116;SDS011;25829;50.228;18.936;2024-03-02T09:28:09;29.25;;;18.92;;
40116;SDS011;25829;50.228;18.936;2024-03-02T09:31:10;25.30;;;17.83;;
40116;SDS011;25829;50.228;18.936;2024-03-02T09:34:12;27.25;;;18.55;;
40116;SDS011;25829;50.228;18.936;2024-03-02T09:37:14;25.88;;;16.80;;
40116;SDS011;25829;50.228;18.936;2024-03-02T09:40:15;23.90;;;16.90;;
40116;SDS011;25829;50.228;18.936;2024-03-02T09:43:16;24.52;;;16.52;;
40116;SDS011;25829;50.228;18.936;2024-03-02T09:46:17;25.25;;;16.30;;
40116;SDS011;25829;50.228;18.936;2024-03-02T09:49:18;30.58;;;17.25;;
40116;SDS011;25829;50.228;18.936;2024-03-02T09:52:19;32.83;;;22.65;;
40116;SDS011;25829;50.228;18.936;2024-03-02T09:55:20;31.35;;;21.75;;
40116;SDS011;25829;50.228;18.936;2024-03-02T09:58:21;39.78;;;26.00;;
40116;SDS011;25829;50.228;18.936;2024-03-02T10:01:22;35.85;;;22.48;;
40116;SDS011;25829;50.228;18.936;2024-03-02T10:04:23;28.00;;;20.70;;
40116;SDS011;25829;50.228;18.936;2024-03-02T10:07:26;32.60;;;19.08;;
40116;SDS011;25829;50.228;18.936;2024-03-02T10:10:34;27.63;;;18.35;;
40116;SDS011;25829;50.228;18.936;2024-03-02T10:13:43;28.67;;;18.35;;
40116;SDS011;25829;50.228;18.936;2024-03-02T10:16:44;26.57;;;18.37;;
40116;SDS011;25829;50.228;18.936;2024-03-02T10:19:45;30.20;;;18.55;;
40116;SDS011;25829;50.228;18.936;2024-03-02T10:22:46;25.30;;;17.27;;
40116;SDS011;25829;50.228;18.936;2024-03-02T10:25:46;26.13;;;19.20;;
40116;SDS011;25829;50.228;18.936;2024-03-02T10:28:47;29.00;;;18.75;;
40116;SDS011;25829;50.228;18.936;2024-03-02T10:31:48;30.40;;;19.02;;
40116;SDS011;25829;50.228;18.936;2024-03-02T10:34:49;30.77;;;19.83;;
40116;SDS011;25829;50.228;18.936;2024-03-02T10:37:51;26.50;;;17.90;;
40116;SDS011;25829;50.228;18.936;2024-03-02T10:40:53;28.42;;;19.80;;
40116;SDS011;25829;50.228;18.936;2024-03-02T10:43:56;32.78;;;19.98;;
40116;SDS011;25829;50.228;18.936;2024-03-02T10:47:01;37.42;;;22.20;;
40116;SDS011;25829;50.228;18.936;2024-03-02T10:50:04;31.25;;;22.10;;
40116;SDS011;25829;50.228;18.936;2024-03-02T10:53:08;33.63;;;20.05;;
40116;SDS011;25829;50.228;18.936;2024-03-02T10:56:09;31.77;;;20.50;;
40116;SDS011;25829;50.228;18.936;2024-03-02T11:02:32;31.90;;;19.77;;
40116;SDS011;25829;50.228;18.936;2024-03-02T11:05:39;25.80;;;18.90;;
40116;SDS011;25829;50.228;18.936;2024-03-02T11:08:43;29.13;;;19.00;;
40116;SDS011;25829;50.228;18.936;2024-03-02T11:11:54;26.57;;;18.17;;
40116;SDS011;25829;50.228;18.936;2024-03-02T11:14:59;29.02;;;19.00;;
40116;SDS011;25829;50.228;18.936;2024-03-02T11:18:01;27.67;;;19.35;;
40116;SDS011;25829;50.228;18.936;2024-03-02T11:21:05;29.75;;;18.30;;
40116;SDS011;25829;50.228;18.936;2024-03-02T11:27:58;23.98;;;15.73;;
40116;SDS011;25829;50.228;18.936;2024-03-02T11:31:00;24.13;;;15.13;;
40116;SDS011;25829;50.228;18.936;2024-03-02T11:34:16;23.33;;;15.35;;
40116;SDS011;25829;50.228;18.936;2024-03-02T11:37:29;22.00;;;15.35;;
40116;SDS011;25829;50.228;18.936;2024-03-02T11:40:30;26.48;;;16.42;;
40116;SDS011;25829;50.228;18.936;2024-03-02T11:43:31;22.05;;;16.27;;
40116;SDS011;25829;50.228;18.936;2024-03-02T11:46:33;20.85;;;15.68;;
40116;SDS011;25829;50.228;18.936;2024-03-02T11:49:38;21.92;;;14.82;;
40116;SDS011;25829;50.228;18.936;2024-03-02T11:52:40;24.48;;;15.07;;
40116;SDS011;25829;50.228;18.936;2024-03-02T11:55:42;21.58;;;13.70;;
40116;SDS011;25829;50.228;18.936;2024-03-02T11:58:46;19.25;;;13.80;;
40116;SDS011;25829;50.228;18.936;2024-03-02T12:01:47;21.55;;;13.68;;
40116;SDS011;25829;50.228;18.936;2024-03-02T12:04:49;20.92;;;13.60;;
40116;SDS011;25829;50.228;18.936;2024-03-02T12:07:54;17.80;;;12.80;;
40116;SDS011;25829;50.228;18.936;2024-03-02T12:11:00;21.48;;;14.18;;
40116;SDS011;25829;50.228;18.936;2024-03-02T12:14:02;22.92;;;16.63;;
40116;SDS011;25829;50.228;18.936;2024-03-02T12:17:05;21.42;;;13.50;;
40116;SDS011;25829;50.228;18.936;2024-03-02T12:20:06;17.75;;;12.18;;
40116;SDS011;25829;50.228;18.936;2024-03-02T12:23:07;19.63;;;13.80;;
40116;SDS011;25829;50.228;18.936;2024-03-02T12:26:08;20.27;;;13.27;;
40116;SDS011;25829;50.228;18.936;2024-03-02T12:29:09;26.05;;;15.38;;
40116;SDS011;25829;50.228;18.936;2024-03-02T12:32:10;23.98;;;15.75;;
40116;SDS011;25829;50.228;18.936;2024-03-02T12:35:11;22.88;;;14.48;;
40116;SDS011;25829;50.228;18.936;2024-03-02T12:38:15;20.70;;;14.93;;
40116;SDS011;25829;50.228;18.936;2024-03-02T12:41:16;18.92;;;14.07;;
40116;SDS011;25829;50.228;18.936;2024-03-02T12:44:17;25.60;;;13.77;;
40116;SDS011;25829;50.228;18.936;2024-03-02T12:47:18;20.88;;;13.63;;
40116;SDS011;25829;50.228;18.936;2024-03-02T12:50:19;22.92;;;14.85;;
40116;SDS011;25829;50.228;18.936;2024-03-02T12:53:21;18.42;;;14.40;;
40116;SDS011;25829;50.228;18.936;2024-03-02T12:56:22;24.88;;;14.68;;
40116;SDS011;25829;50.228;18.936;2024-03-02T12:59:24;25.00;;;15.70;;
40116;SDS011;25829;50.228;18.936;2024-03-02T13:02:30;20.67;;;14.80;;
40116;SDS011;25829;50.228;18.936;2024-03-02T13:05:31;23.20;;;15.57;;
40116;SDS011;25829;50.228;18.936;2024-03-02T13:08:35;24.73;;;16.90;;
40116;SDS011;25829;50.228;18.936;2024-03-02T13:11:36;23.77;;;15.50;;
40116;SDS011;25829;50.228;18.936;2024-03-02T13:14:38;22.73;;;16.45;;
40116;SDS011;25829;50.228;18.936;2024-03-02T13:17:38;25.23;;;17.75;;
40116;SDS011;25829;50.228;18.936;2024-03-02T13:20:39;26.52;;;16.05;;
40116;SDS011;25829;50.228;18.936;2024-03-02T13:23:40;18.85;;;15.07;;
40116;SDS011;25829;50.228;18.936;2024-03-02T13:26:41;21.98;;;14.93;;
40116;SDS011;25829;50.228;18.936;2024-03-02T13:29:42;20.92;;;14.68;;
40116;SDS011;25829;50.228;18.936;2024-03-02T13:32:43;20.65;;;14.13;;
40116;SDS011;25829;50.228;18.936;2024-03-02T13:35:43;20.20;;;14.40;;
40116;SDS011;25829;50.228;18.936;2024-03-02T13:38:44;20.73;;;14.95;;
40116;SDS011;25829;50.228;18.936;2024-03-02T13:41:45;21.90;;;14.35;;
40116;SDS011;25829;50.228;18.936;2024-03-02T13:44:52;21.00;;;15.43;;
40116;SDS011;25829;50.228;18.936;2024-03-02T13:47:53;21.52;;;15.07;;
40116;SDS011;25829;50.228;18.936;2024-03-02T13:50:54;22.90;;;15.13;;
40116;SDS011;25829;50.228;18.936;2024-03-02T13:53:55;24.10;;;14.65;;
40116;SDS011;25829;50.228;18.936;2024-03-02T13:56:56;21.63;;;15.07;;
40116;SDS011;25829;50.228;18.936;2024-03-02T13:59:58;21.70;;;14.18;;
40116;SDS011;25829;50.228;18.936;2024-03-02T14:02:59;20.88;;;14.40;;
40116;SDS011;25829;50.228;18.936;2024-03-02T14:06:00;21.02;;;14.88;;
40116;SDS011;25829;50.228;18.936;2024-03-02T14:09:01;22.70;;;15.88;;
40116;SDS011;25829;50.228;18.936;2024-03-02T14:12:02;18.13;;;13.82;;
40116;SDS011;25829;50.228;18.936;2024-03-02T14:15:04;22.05;;;14.73;;
40116;SDS011;25829;50.228;18.936;2024-03-02T14:18:05;17.70;;;12.88;;
40116;SDS011;25829;50.228;18.936;2024-03-02T14:21:07;19.98;;;12.48;;
40116;SDS011;25829;50.228;18.936;2024-03-02T14:24:08;17.48;;;12.23;;
40116;SDS011;25829;50.228;18.936;2024-03-02T14:27:09;19.08;;;12.68;;
40116;SDS011;25829;50.228;18.936;2024-03-02T14:30:10;17.05;;;12.50;;
40116;SDS011;25829;50.228;18.936;2024-03-02T14:33:11;17.45;;;12.93;;
40116;SDS011;25829;50.228;18.936;2024-03-02T14:36:13;17.95;;;13.07;;
40116;SDS011;25829;50.228;18.936;2024-03-02T14:39:14;16.88;;;13.10;;
40116;SDS011;25829;50.228;18.936;2024-03-02T14:42:15;19.58;;;13.07;;
40116;SDS011;25829;50.228;18.936;2024-03-02T14:45:16;19.17;;;13.20;;
40116;SDS011;25829;50.228;18.936;2024-03-02T14:48:17;20.88;;;13.13;;
40116;SDS011;25829;50.228;18.936;2024-03-02T14:51:17;20.23;;;13.95;;
40116;SDS011;25829;50.228;18.936;2024-03-02T14:54:18;21.38;;;14.30;;
40116;SDS011;25829;50.228;18.936;2024-03-02T14:57:19;17.33;;;13.68;;
40116;SDS011;25829;50.228;18.936;2024-03-02T15:00:20;18.45;;;13.93;;
40116;SDS011;25829;50.228;18.936;2024-03-02T15:03:20;21.45;;;13.02;;
40116;SDS011;25829;50.228;18.936;2024-03-02T15:06:21;17.48;;;13.07;;
40116;SDS011;25829;50.228;18.936;2024-03-02T15:09:22;16.92;;;12.50;;
40116;SDS011;25829;50.228;18.936;2024-03-02T15:12:23;20.38;;;13.77;;
40116;SDS011;25829;50.228;18.936;2024-03-02T15:15:24;19.05;;;13.90;;
40116;SDS011;25829;50.228;18.936;2024-03-02T15:18:25;23.63;;;15.13;;
40116;SDS011;25829;50.228;18.936;2024-03-02T15:21:27;31.05;;;22.73;;
40116;SDS011;25829;50.228;18.936;2024-03-02T15:24:28;32.78;;;22.48;;
40116;SDS011;25829;50.228;18.936;2024-03-02T15:27:28;24.60;;;18.33;;
40116;SDS011;25829;50.228;18.936;2024-03-02T15:30:29;24.83;;;18.58;;
40116;SDS011;25829;50.228;18.936;2024-03-02T15:33:30;23.42;;;17.50;;
40116;SDS011;25829;50.228;18.936;2024-03-02T15:36:31;23.23;;;16.48;;
40116;SDS011;25829;50.228;18.936;2024-03-02T15:39:32;23.02;;;16.30;;
40116;SDS011;25829;50.228;18.936;2024-03-02T15:42:33;20.33;;;15.32;;
40116;SDS011;25829;50.228;18.936;2024-03-02T15:45:34;21.40;;;14.60;;
40116;SDS011;25829;50.228;18.936;2024-03-02T15:48:35;19.73;;;15.15;;
40116;SDS011;25829;50.228;18.936;2024-03-02T15:51:36;18.83;;;15.02;;
40116;SDS011;25829;50.228;18.936;2024-03-02T15:54:40;20.92;;;16.02;;
40116;SDS011;25829;50.228;18.936;2024-03-02T15:57:41;19.08;;;15.88;;
40116;SDS011;25829;50.228;18.936;2024-03-02T16:00:42;24.33;;;16.27;;
40116;SDS011;25829;50.228;18.936;2024-03-02T16:03:42;22.13;;;16.23;;
40116;SDS011;25829;50.228;18.936;2024-03-02T16:06:43;23.13;;;15.98;;
40116;SDS011;25829;50.228;18.936;2024-03-02T16:09:44;22.35;;;15.45;;
40116;SDS011;25829;50.228;18.936;2024-03-02T16:12:45;19.42;;;15.13;;
40116;SDS011;25829;50.228;18.936;2024-03-02T16:15:47;22.58;;;16.10;;
40116;SDS011;25829;50.228;18.936;2024-03-02T16:18:47;16.80;;;14.18;;
40116;SDS011;25829;50.228;18.936;2024-03-02T16:21:48;19.77;;;14.80;;
40116;SDS011;25829;50.228;18.936;2024-03-02T16:24:49;18.33;;;13.77;;
40116;SDS011;25829;50.228;18.936;2024-03-02T16:27:50;17.77;;;14.25;;
40116;SDS011;25829;50.228;18.936;2024-03-02T16:30:52;21.27;;;14.90;;
40116;SDS011;25829;50.228;18.936;2024-03-02T16:33:54;24.92;;;15.07;;
40116;SDS011;25829;50.228;18.936;2024-03-02T16:36:55;37.20;;;19.60;;
40116;SDS011;25829;50.228;18.936;2024-03-02T16:39:56;31.73;;;18.92;;
40116;SDS011;25829;50.228;18.936;2024-03-02T16:42:57;31.23;;;19.50;;
40116;SDS011;25829;50.228;18.936;2024-03-02T16:45:58;27.80;;;17.15;;
40116;SDS011;25829;50.228;18.936;2024-03-02T16:48:58;28.30;;;17.73;;
40116;SDS011;25829;50.228;18.936;2024-03-02T16:51:59;26.70;;;17.42;;
40116;SDS011;25829;50.228;18.936;2024-03-02T16:55:00;27.35;;;18.65;;
40116;SDS011;25829;50.228;18.936;2024-03-02T16:58:01;28.85;;;19.33;;
40116;SDS011;25829;50.228;18.936;2024-03-02T17:01:02;25.13;;;18.42;;
40116;SDS011;25829;50.228;18.936;2024-03-02T17:04:03;33.13;;;18.92;;
40116;SDS011;25829;50.228;18.936;2024-03-02T17:07:06;26.67;;;18.38;;
40116;SDS011;25829;50.228;18.936;2024-03-02T17:10:06;30.33;;;19.35;;
40116;SDS011;25829;50.228;18.936;2024-03-02T17:13:07;27.88;;;18.98;;
40116;SDS011;25829;50.228;18.936;2024-03-02T17:16:10;27.15;;;18.17;;
40116;SDS011;25829;50.228;18.936;2024-03-02T17:19:11;47.25;;;25.15;;
40116;SDS011;25829;50.228;18.936;2024-03-02T17:22:11;60.70;;;33.08;;
40116;SDS011;25829;50.228;18.936;2024-03-02T17:25:12;68.97;;;37.50;;
40116;SDS011;25829;50.228;18.936;2024-03-02T17:28:22;57.85;;;32.72;;
40116;SDS011;25829;50.228;18.936;2024-03-02T17:31:25;39.08;;;24.70;;
40116;SDS011;25829;50.228;18.936;2024-03-02T17:34:26;43.83;;;25.52;;
40116;SDS011;25829;50.228;18.936;2024-03-02T17:37:28;38.88;;;24.92;;
40116;SDS011;25829;50.228;18.936;2024-03-02T17:40:28;38.97;;;27.38;;
40116;SDS011;25829;50.228;18.936;2024-03-02T17:43:29;34.33;;;24.25;;
40116;SDS011;25829;50.228;18.936;2024-03-02T17:46:30;35.90;;;24.98;;
40116;SDS011;25829;50.228;18.936;2024-03-02T17:49:30;37.55;;;26.02;;